Impacts TAF Board INFO
FOR SITUATIONAL AWARENESS. NOT TO BE USED FOR FLIGHT PLANNING PURPOSES.
IDs:

KGEG - Spokane Intl, WA, US

Issued at 0523 UTC 11 Dec 2017
Updated at 0545 UTC 11 Dec 2017
Potential Impact None Slight Moderate High
Time0453Z 11/06Z 11/07Z 11/08Z 11/09Z 11/10Z 11/11Z 11/12Z 11/13Z 11/14Z 11/15Z 11/16Z 11/17Z 11/18Z>>
Type OBS PRVL PRVL PRVL PRVL PRVL PRVL PRVL PRVL PRVL PRVL PRVL PRVL PRVL
VIS 10 >6 >6 >6 >6 >6 >6 >6 >6 >6 >6 >6 >6 >6
CIG 6 7 7 7 7 7 7 7 7 7 7 10 10 10
Cover OVC OVC OVC OVC OVC OVC OVC OVC OVC OVC OVC OVC OVC OVC
FltCat IFR IFR IFR IFR IFR IFR IFR IFR IFR IFR IFR MVFR MVFR MVFR
WX -- -- -- -- -- -- -- -- -- -- -- -- -- --
WDir 10 50 50 50 50 50 50 50 50 50 50 50 50 50
WSpd 6 4 4 4 4 4 4 4 4 4 4 4 4 4
WGst -- -- -- -- -- -- -- -- -- -- -- -- -- --

Raw TAF
KGEG 110523Z 1106/1206 05004KT P6SM OVC007
  FM111600 05004KT P6SM OVC010


Raw METAR
KGEG 110453Z 01006KT 10SM OVC006 M04/M04 A3058 RMK AO2 SLP386 T10391044
KGEG 110353Z 03005KT 10SM OVC007 M03/M04 A3059 RMK AO2 SLP388 T10331044
KGEG 110253Z 01006KT 10SM OVC008 M03/M04 A3059 RMK AO2 SLP389 T10331044 53002

METAR Board
Radar Display
Forecast Discussion

FOR SITUATIONAL AWARENESS. NOT TO BE USED FOR FLIGHT PLANNING PURPOSES.